Time;durP1;ratioP1;P1;durP2;ratioP2;P2;SDS_P1;SDS_P2;PMS_P1;PMS_P2;Temp;Humidity;BMP_temperature;BMP_pressure;BME280_temperature;BME280_humidity;BME280_pressure;Samples;Min_cycle;Max_cycle;Signal;HPM_P1;HPM_P2
2024/02/22 00:01:16;;;;;;;5.03;4.33;;;;;;;;;;5091548;28;20199;-85
2024/02/22 00:03:44;;;;;;;4.13;3.73;;;;;;;;;;5073522;28;20681;-84
2024/02/22 00:06:11;;;;;;;5.60;3.47;;;;;;;;;;5094923;28;20192;-84
2024/02/22 00:08:40;;;;;;;4.47;3.90;;;;;;;;;;5095445;28;20258;-85
2024/02/22 00:11:08;;;;;;;4.27;3.87;;;;;;;;;;5077117;28;20319;-85
2024/02/22 00:13:34;;;;;;;5.00;3.97;;;;;;;;;;5095390;28;20200;-85
2024/02/22 00:16:05;;;;;;;4.90;3.87;;;;;;;;;;5095091;28;20192;-84
2024/02/22 00:18:32;;;;;;;4.17;3.77;;;;;;;;;;5094948;28;20204;-84
2024/02/22 00:21:01;;;;;;;4.53;3.43;;;;;;;;;;5094920;28;20288;-84
2024/02/22 00:23:27;;;;;;;4.50;3.37;;;;;;;;;;5095573;28;20192;-84
2024/02/22 00:25:54;;;;;;;5.20;4.17;;;;;;;;;;5095076;28;20572;-85
2024/02/22 00:28:21;;;;;;;4.40;3.67;;;;;;;;;;5108858;28;20202;-84
2024/02/22 00:30:48;;;;;;;5.13;3.40;;;;;;;;;;5098421;28;20220;-83
2024/02/22 00:33:15;;;;;;;3.93;3.33;;;;;;;;;;5095206;28;20281;-84
2024/02/22 00:35:42;;;;;;;3.57;3.20;;;;;;;;;;5095341;28;20196;-83
2024/02/22 00:38:10;;;;;;;3.83;2.97;;;;;;;;;;5095096;28;20239;-84
2024/02/22 00:40:38;;;;;;;4.27;3.40;;;;;;;;;;5094258;28;20681;-84
2024/02/22 00:43:05;;;;;;;5.50;5.00;;;;;;;;;;5094879;28;20767;-84
2024/02/22 00:45:34;;;;;;;3.23;2.93;;;;;;;;;;5094584;28;20211;-85
2024/02/22 00:48:01;;;;;;;4.83;3.57;;;;;;;;;;5098817;28;20202;-85
2024/02/22 00:50:28;;;;;;;4.20;3.80;;;;;;;;;;5105595;28;20236;-84
2024/02/22 00:52:55;;;;;;;3.77;3.37;;;;;;;;;;5081421;28;20196;-84
2024/02/22 00:55:23;;;;;;;3.47;3.17;;;;;;;;;;5094371;28;20662;-85
2024/02/22 00:57:50;;;;;;;3.50;3.20;;;;;;;;;;5099064;28;20199;-83
2024/02/22 01:00:17;;;;;;;5.27;3.60;;;;;;;;;;5115442;28;20689;-84
2024/02/22 01:02:44;;;;;;;3.07;2.77;;;;;;;;;;5095683;28;20201;-85
2024/02/22 01:05:11;;;;;;;3.33;3.03;;;;;;;;;;5094433;28;20200;-85
2024/02/22 01:07:38;;;;;;;3.67;3.37;;;;;;;;;;5094794;28;20197;-84
2024/02/22 01:10:06;;;;;;;4.30;3.37;;;;;;;;;;5112309;28;20732;-85
2024/02/22 01:12:34;;;;;;;8.40;6.23;;;;;;;;;;5102327;28;20227;-85
2024/02/22 01:15:01;;;;;;;7.70;6.83;;;;;;;;;;5094765;28;20200;-85
2024/02/22 01:17:28;;;;;;;7.63;6.83;;;;;;;;;;5097906;28;20191;-85
2024/02/22 01:19:55;;;;;;;7.43;6.03;;;;;;;;;;5111818;28;20192;-85
2024/02/22 01:22:21;;;;;;;7.27;6.50;;;;;;;;;;5094364;28;20257;-85
2024/02/22 01:24:48;;;;;;;5.93;5.10;;;;;;;;;;5094182;28;20215;-85
2024/02/22 01:27:15;;;;;;;6.07;5.40;;;;;;;;;;5094210;28;20655;-84
2024/02/22 01:29:44;;;;;;;7.37;5.00;;;;;;;;;;5107936;28;20206;-85
2024/02/22 01:32:11;;;;;;;4.80;4.10;;;;;;;;;;5096838;28;20227;-84
2024/02/22 01:34:38;;;;;;;5.07;4.17;;;;;;;;;;5082099;28;20256;-84
2024/02/22 01:37:05;;;;;;;4.23;3.83;;;;;;;;;;5095896;28;20198;-85
2024/02/22 01:39:32;;;;;;;4.03;3.33;;;;;;;;;;5093962;28;20196;-84
2024/02/22 01:41:58;;;;;;;5.53;4.30;;;;;;;;;;5093597;28;20257;-84
2024/02/22 01:44:27;;;;;;;4.20;3.43;;;;;;;;;;5099822;28;20558;-84
2024/02/22 01:46:55;;;;;;;5.40;4.20;;;;;;;;;;5097621;28;20196;-85
2024/02/22 01:49:23;;;;;;;4.37;3.93;;;;;;;;;;5104148;28;20212;-86
2024/02/22 01:51:50;;;;;;;5.07;3.70;;;;;;;;;;5078153;28;20216;-85
2024/02/22 01:54:17;;;;;;;4.57;3.70;;;;;;;;;;5093517;28;20197;-86
2024/02/22 01:56:43;;;;;;;4.30;3.50;;;;;;;;;;5093784;28;20192;-85
2024/02/22 01:59:10;;;;;;;4.07;3.50;;;;;;;;;;5093315;28;20196;-85
2024/02/22 02:01:38;;;;;;;3.90;3.60;;;;;;;;;;5093644;28;20254;-84
2024/02/22 02:04:07;;;;;;;3.40;3.10;;;;;;;;;;5094492;28;20192;-86
2024/02/22 02:06:33;;;;;;;4.17;3.77;;;;;;;;;;5110583;28;20199;-85
2024/02/22 02:09:02;;;;;;;4.03;3.63;;;;;;;;;;5093534;28;20472;-84
2024/02/22 02:11:28;;;;;;;4.60;3.90;;;;;;;;;;5090248;28;20228;-85
2024/02/22 02:13:55;;;;;;;4.63;4.23;;;;;;;;;;5086089;28;20192;-85
2024/02/22 02:16:22;;;;;;;5.33;4.33;;;;;;;;;;5099117;28;20199;-84
2024/02/22 02:18:49;;;;;;;4.97;4.30;;;;;;;;;;5103740;28;20261;-85
2024/02/22 02:21:26;;;;;;;5.63;4.30;;;;;;;;;;5093282;28;20208;-85
2024/02/22 02:24:02;;;;;;;5.47;3.90;;;;;;;;;;5092789;28;20192;-85
2024/02/22 02:26:30;;;;;;;5.63;4.30;;;;;;;;;;5092699;28;20252;-85
2024/02/22 02:28:57;;;;;;;4.47;4.07;;;;;;;;;;5092137;28;20200;-85
2024/02/22 02:31:24;;;;;;;4.83;4.33;;;;;;;;;;5092988;28;20711;-85
2024/02/22 02:33:50;;;;;;;4.63;4.10;;;;;;;;;;5109377;28;20222;-84
2024/02/22 02:36:17;;;;;;;5.63;4.80;;;;;;;;;;5093068;28;20261;-85
2024/02/22 02:38:44;;;;;;;3.60;3.30;;;;;;;;;;5092875;28;20192;-85
2024/02/22 02:41:11;;;;;;;3.97;3.67;;;;;;;;;;5094155;28;20204;-85
2024/02/22 02:43:39;;;;;;;4.20;3.57;;;;;;;;;;5112471;28;20677;-85
2024/02/22 02:46:06;;;;;;;3.73;3.40;;;;;;;;;;5101536;28;20192;-84
2024/02/22 02:48:33;;;;;;;3.77;3.33;;;;;;;;;;5109400;28;20206;-85
2024/02/22 02:51:00;;;;;;;3.50;2.93;;;;;;;;;;5092202;28;20196;-84
2024/02/22 02:53:26;;;;;;;3.20;2.90;;;;;;;;;;5092331;28;20219;-85
2024/02/22 02:55:53;;;;;;;3.87;3.13;;;;;;;;;;5092358;28;20208;-85
2024/02/22 02:58:20;;;;;;;4.87;2.80;;;;;;;;;;5092420;28;20200;-84
2024/02/22 03:00:48;;;;;;;3.93;3.00;;;;;;;;;;5092941;28;20189;-85
2024/02/22 03:03:15;;;;;;;3.53;3.20;;;;;;;;;;5091954;28;20728;-85
2024/02/22 03:05:41;;;;;;;3.83;3.23;;;;;;;;;;5091874;28;20223;-84
2024/02/22 03:08:10;;;;;;;4.03;3.63;;;;;;;;;;5098171;28;20200;-83
2024/02/22 03:10:37;;;;;;;5.27;4.03;;;;;;;;;;5092209;28;20250;-84
2024/02/22 03:13:08;;;;;;;4.33;3.43;;;;;;;;;;5091767;28;20212;-84
2024/02/22 03:15:35;;;;;;;5.53;4.07;;;;;;;;;;5092534;28;20200;-83
2024/02/22 03:18:05;;;;;;;3.33;3.03;;;;;;;;;;5090634;28;20279;-84
2024/02/22 03:20:32;;;;;;;4.73;3.60;;;;;;;;;;5091853;28;20211;-84
2024/02/22 03:22:59;;;;;;;4.43;3.97;;;;;;;;;;5092289;28;20200;-84
2024/02/22 03:25:27;;;;;;;4.43;3.80;;;;;;;;;;5091876;28;20223;-84
2024/02/22 03:27:58;;;;;;;5.10;3.77;;;;;;;;;;5091353;28;20235;-84
2024/02/22 03:30:25;;;;;;;5.37;3.70;;;;;;;;;;5092026;28;20205;-84
2024/02/22 03:32:52;;;;;;;3.67;3.03;;;;;;;;;;5092002;28;20640;-84
2024/02/22 03:35:22;;;;;;;4.50;3.20;;;;;;;;;;5099563;28;20302;-84
2024/02/22 03:37:49;;;;;;;4.20;3.80;;;;;;;;;;5082073;28;20205;-84
2024/02/22 03:40:16;;;;;;;4.60;4.20;;;;;;;;;;5071322;28;20200;-84
2024/02/22 03:42:42;;;;;;;4.27;3.87;;;;;;;;;;5091934;28;20196;-84
2024/02/22 03:45:12;;;;;;;4.67;4.03;;;;;;;;;;5092071;28;20200;-84
2024/02/22 03:47:42;;;;;;;5.30;4.80;;;;;;;;;;5090833;28;20714;-84
2024/02/22 03:50:10;;;;;;;3.63;3.33;;;;;;;;;;5091721;28;20278;-84
2024/02/22 03:52:38;;;;;;;4.17;3.13;;;;;;;;;;5104619;28;20222;-84
2024/02/22 03:55:08;;;;;;;4.10;3.67;;;;;;;;;;5096522;28;20191;-85
2024/02/22 03:57:35;;;;;;;5.30;3.27;;;;;;;;;;5100312;28;20200;-83
2024/02/22 04:00:02;;;;;;;2.93;2.63;;;;;;;;;;5091127;28;20200;-84
2024/02/22 04:02:28;;;;;;;3.97;3.27;;;;;;;;;;5100004;28;20206;-84
2024/02/22 04:04:55;;;;;;;3.27;2.97;;;;;;;;;;5088902;28;20196;-84
2024/02/22 04:07:24;;;;;;;7.20;3.40;;;;;;;;;;5101359;28;20203;-85
2024/02/22 04:09:52;;;;;;;3.87;3.53;;;;;;;;;;5090962;28;20200;-85
2024/02/22 04:12:19;;;;;;;3.87;3.50;;;;;;;;;;5091489;28;20258;-83
2024/02/22 04:14:46;;;;;;;3.60;3.30;;;;;;;;;;5091205;28;20199;-85
2024/02/22 04:17:14;;;;;;;5.17;4.67;;;;;;;;;;5100709;28;20189;-85
2024/02/22 04:19:41;;;;;;;4.87;4.47;;;;;;;;;;5082618;28;20731;-84
2024/02/22 04:22:10;;;;;;;4.20;3.80;;;;;;;;;;5090581;28;20254;-84
2024/02/22 04:24:36;;;;;;;4.20;3.80;;;;;;;;;;5099768;28;20256;-83
2024/02/22 04:27:05;;;;;;;4.87;3.70;;;;;;;;;;5108266;28;20208;-84
2024/02/22 04:29:32;;;;;;;3.97;3.40;;;;;;;;;;5090929;28;20215;-84
2024/02/22 04:31:59;;;;;;;13.57;9.13;;;;;;;;;;5090361;28;20224;-82
2024/02/22 04:34:25;;;;;;;15.20;10.83;;;;;;;;;;5090374;28;20239;-82
2024/02/22 04:36:52;;;;;;;145.07;85.43;;;;;;;;;;5090283;28;20711;-83
2024/02/22 04:39:19;;;;;;;107.67;56.33;;;;;;;;;;5091108;28;20192;-83
2024/02/22 04:41:46;;;;;;;174.07;88.57;;;;;;;;;;5091124;28;20262;-82
2024/02/22 04:44:14;;;;;;;68.53;37.60;;;;;;;;;;5090499;28;20199;-83
2024/02/22 04:46:41;;;;;;;25.13;17.23;;;;;;;;;;5090633;28;20204;-82
2024/02/22 04:49:09;;;;;;;31.20;28.07;;;;;;;;;;5091026;28;20712;-81
2024/02/22 04:51:36;;;;;;;8.37;7.57;;;;;;;;;;5110760;28;20195;-82
2024/02/22 04:54:03;;;;;;;10.67;9.53;;;;;;;;;;5094236;28;20297;-81
2024/02/22 04:56:30;;;;;;;8.90;8.07;;;;;;;;;;5094644;28;20203;-82
2024/02/22 04:58:57;;;;;;;22.10;20.13;;;;;;;;;;5113251;28;20195;-81
2024/02/22 05:01:26;;;;;;;17.37;15.70;;;;;;;;;;5088031;28;20223;-83
2024/02/22 05:03:53;;;;;;;7.70;6.40;;;;;;;;;;5080262;28;20203;-83
2024/02/22 05:06:20;;;;;;;5.50;5.00;;;;;;;;;;5092394;28;20204;-83
2024/02/22 05:08:47;;;;;;;4.77;4.37;;;;;;;;;;5081683;28;20197;-83
2024/02/22 05:11:13;;;;;;;3.97;3.47;;;;;;;;;;5094322;28;20552;-82
2024/02/22 05:13:42;;;;;;;3.83;3.40;;;;;;;;;;5092333;28;20220;-83
2024/02/22 05:16:09;;;;;;;8.33;7.57;;;;;;;;;;5082751;28;20191;-83
2024/02/22 05:18:38;;;;;;;7.40;6.70;;;;;;;;;;5099011;28;20646;-83
2024/02/22 05:21:05;;;;;;;8.27;5.80;;;;;;;;;;5094139;28;20193;-81
2024/02/22 05:23:32;;;;;;;7.53;5.23;;;;;;;;;;5092694;28;20655;-82
2024/02/22 05:25:59;;;;;;;5.07;4.10;;;;;;;;;;5093617;28;20196;-82
2024/02/22 05:28:25;;;;;;;4.47;3.70;;;;;;;;;;5090522;28;20200;-81
2024/02/22 05:30:52;;;;;;;4.30;3.90;;;;;;;;;;5083664;28;20199;-82
2024/02/22 05:33:20;;;;;;;6.53;5.83;;;;;;;;;;5094175;28;20555;-82
2024/02/22 05:35:48;;;;;;;13.67;9.83;;;;;;;;;;5096333;28;20218;-82
2024/02/22 05:38:14;;;;;;;27.97;14.93;;;;;;;;;;5114561;28;20196;-82
2024/02/22 05:40:42;;;;;;;34.73;25.73;;;;;;;;;;5105800;28;20193;-82
2024/02/22 05:43:11;;;;;;;35.63;25.40;;;;;;;;;;5093578;28;20224;-85
2024/02/22 05:45:44;;;;;;;21.80;15.30;;;;;;;;;;5093332;28;20199;-84
2024/02/22 05:48:14;;;;;;;14.77;11.77;;;;;;;;;;5093990;28;20650;-85
2024/02/22 05:50:40;;;;;;;15.40;11.10;;;;;;;;;;5093395;28;20666;-86
2024/02/22 05:53:12;;;;;;;9.17;8.37;;;;;;;;;;5107077;28;20238;-85
2024/02/22 05:55:42;;;;;;;7.83;6.87;;;;;;;;;;5081252;28;20201;-85
2024/02/22 05:58:10;;;;;;;7.27;6.60;;;;;;;;;;5089005;28;20196;-85
2024/02/22 06:00:40;;;;;;;5.60;4.97;;;;;;;;;;5093451;28;20227;-85
2024/02/22 06:03:08;;;;;;;9.03;8.03;;;;;;;;;;5093749;28;20200;-84
2024/02/22 06:05:36;;;;;;;16.33;13.10;;;;;;;;;;5103384;28;20199;-85
2024/02/22 06:08:03;;;;;;;18.00;16.10;;;;;;;;;;5082285;28;20230;-86
2024/02/22 06:10:32;;;;;;;20.90;13.70;;;;;;;;;;5093233;28;20204;-85
2024/02/22 06:12:58;;;;;;;19.33;17.27;;;;;;;;;;5083532;28;20212;-85
2024/02/22 06:15:25;;;;;;;18.07;15.10;;;;;;;;;;5088496;28;20216;-85
2024/02/22 06:17:52;;;;;;;15.50;12.17;;;;;;;;;;5092746;28;20614;-84
2024/02/22 06:20:19;;;;;;;9.90;8.83;;;;;;;;;;5094733;28;20203;-83
2024/02/22 06:22:46;;;;;;;10.10;8.73;;;;;;;;;;5102925;28;20201;-84
2024/02/22 06:25:13;;;;;;;7.23;6.53;;;;;;;;;;5105763;28;20208;-84
2024/02/22 06:27:42;;;;;;;8.10;6.97;;;;;;;;;;5102648;28;20261;-84
2024/02/22 06:30:15;;;;;;;7.57;6.80;;;;;;;;;;5094887;28;20275;-84
2024/02/22 06:32:41;;;;;;;14.37;10.90;;;;;;;;;;5092324;28;20669;-84
2024/02/22 06:35:11;;;;;;;9.80;7.60;;;;;;;;;;5096336;28;20799;-84
2024/02/22 06:37:38;;;;;;;12.27;10.43;;;;;;;;;;5112924;28;20191;-84
2024/02/22 06:40:07;;;;;;;20.23;12.90;;;;;;;;;;5111983;28;20195;-84
2024/02/22 06:42:35;;;;;;;18.57;14.23;;;;;;;;;;5112305;28;20660;-85
2024/02/22 06:45:04;;;;;;;16.50;12.33;;;;;;;;;;5098902;28;20199;-84
2024/02/22 06:47:30;;;;;;;19.73;14.37;;;;;;;;;;5112861;28;20264;-85
2024/02/22 06:49:57;;;;;;;18.07;14.40;;;;;;;;;;5098183;28;20669;-84
2024/02/22 06:52:24;;;;;;;14.00;11.77;;;;;;;;;;5112416;28;20207;-84
2024/02/22 06:54:51;;;;;;;19.53;13.33;;;;;;;;;;5092324;28;20196;-84
2024/02/22 06:57:18;;;;;;;17.23;13.40;;;;;;;;;;5092105;28;20299;-84
2024/02/22 06:59:44;;;;;;;30.97;20.70;;;;;;;;;;5091767;28;20206;-84
2024/02/22 07:02:15;;;;;;;21.93;15.30;;;;;;;;;;5091526;28;20662;-85
2024/02/22 07:04:42;;;;;;;19.80;12.97;;;;;;;;;;5079062;28;20203;-84
2024/02/22 07:07:09;;;;;;;18.97;12.30;;;;;;;;;;5093417;28;20269;-84
2024/02/22 07:09:36;;;;;;;15.67;11.37;;;;;;;;;;5095547;28;20197;-85
2024/02/22 07:12:03;;;;;;;20.77;13.53;;;;;;;;;;5073572;28;20200;-84
2024/02/22 07:14:30;;;;;;;16.37;11.80;;;;;;;;;;5090594;28;20281;-84
2024/02/22 07:16:57;;;;;;;19.30;13.83;;;;;;;;;;5092023;28;20208;-85
2024/02/22 07:19:25;;;;;;;15.33;11.43;;;;;;;;;;5101144;28;20199;-85
2024/02/22 07:21:52;;;;;;;13.43;10.57;;;;;;;;;;5095209;28;20236;-85
2024/02/22 07:24:20;;;;;;;14.33;11.70;;;;;;;;;;5091216;28;20283;-85
2024/02/22 07:26:47;;;;;;;15.07;11.27;;;;;;;;;;5091906;28;20572;-85
2024/02/22 07:29:14;;;;;;;14.23;10.30;;;;;;;;;;5091333;28;20655;-85
2024/02/22 07:31:41;;;;;;;16.17;11.67;;;;;;;;;;5094759;28;20192;-85
2024/02/22 07:34:10;;;;;;;14.87;11.77;;;;;;;;;;5100829;28;20327;-85
2024/02/22 07:36:42;;;;;;;16.97;11.13;;;;;;;;;;5077753;28;20565;-84
2024/02/22 07:39:11;;;;;;;16.07;11.30;;;;;;;;;;5091296;28;20272;-84
2024/02/22 07:41:38;;;;;;;12.07;10.17;;;;;;;;;;5110360;28;20618;-85
2024/02/22 07:44:05;;;;;;;14.50;10.67;;;;;;;;;;5086102;28;20695;-85
2024/02/22 07:46:31;;;;;;;16.33;11.97;;;;;;;;;;5090513;28;20249;-85
2024/02/22 07:48:58;;;;;;;14.00;10.80;;;;;;;;;;5091192;28;20253;-85
2024/02/22 07:51:25;;;;;;;17.13;11.77;;;;;;;;;;5090641;28;20632;-85
2024/02/22 07:53:53;;;;;;;12.70;10.93;;;;;;;;;;5091135;28;20219;-85
2024/02/22 07:56:20;;;;;;;14.73;12.30;;;;;;;;;;5097167;28;20202;-85
2024/02/22 07:58:49;;;;;;;17.73;13.37;;;;;;;;;;5097984;28;20236;-85
2024/02/22 08:01:16;;;;;;;13.53;11.33;;;;;;;;;;5091068;28;20196;-85
2024/02/22 08:03:43;;;;;;;14.53;10.93;;;;;;;;;;5090907;28;20196;-85
2024/02/22 08:06:10;;;;;;;16.47;12.30;;;;;;;;;;5090647;28;20188;-85
2024/02/22 08:08:40;;;;;;;14.10;11.33;;;;;;;;;;5104644;28;20621;-87
2024/02/22 08:11:08;;;;;;;14.47;11.40;;;;;;;;;;5078299;28;20200;-85
2024/02/22 08:13:35;;;;;;;14.53;11.57;;;;;;;;;;5103861;28;20211;-85
2024/02/22 08:16:05;;;;;;;13.93;11.20;;;;;;;;;;5098749;28;20195;-84
2024/02/22 08:18:32;;;;;;;19.37;14.40;;;;;;;;;;5097562;28;20569;-85
2024/02/22 08:20:59;;;;;;;20.17;14.97;;;;;;;;;;5102686;28;20196;-84
2024/02/22 08:23:26;;;;;;;20.17;14.60;;;;;;;;;;5076869;28;20205;-85
2024/02/22 08:25:52;;;;;;;100.23;45.40;;;;;;;;;;5092791;28;20208;-85
2024/02/22 08:28:21;;;;;;;72.60;28.40;;;;;;;;;;5094906;28;20279;-85
2024/02/22 08:30:48;;;;;;;27.87;20.13;;;;;;;;;;5094931;28;20287;-85
2024/02/22 08:33:15;;;;;;;25.37;18.93;;;;;;;;;;5108285;28;20236;-84
2024/02/22 08:35:42;;;;;;;22.07;15.57;;;;;;;;;;5085222;28;20204;-85
2024/02/22 08:38:12;;;;;;;15.70;12.73;;;;;;;;;;5091383;28;20192;-86
2024/02/22 08:40:40;;;;;;;17.47;13.27;;;;;;;;;;5094577;28;20202;-85
2024/02/22 08:43:08;;;;;;;13.13;11.10;;;;;;;;;;5094233;28;20960;-84
2024/02/22 08:45:36;;;;;;;13.63;12.00;;;;;;;;;;5094885;28;20279;-85
2024/02/22 08:48:04;;;;;;;14.60;11.80;;;;;;;;;;5099681;28;20196;-84
2024/02/22 08:50:32;;;;;;;13.87;11.47;;;;;;;;;;5114445;28;20253;-85
2024/02/22 08:52:58;;;;;;;18.23;14.17;;;;;;;;;;5094226;28;20196;-84
2024/02/22 08:55:25;;;;;;;18.63;13.10;;;;;;;;;;5081770;28;20214;-84
2024/02/22 08:57:52;;;;;;;21.47;15.27;;;;;;;;;;5107006;28;20238;-85
2024/02/22 09:00:20;;;;;;;32.10;22.50;;;;;;;;;;5094263;28;20192;-84
2024/02/22 09:02:48;;;;;;;21.33;15.57;;;;;;;;;;5094000;28;20651;-83
2024/02/22 09:05:15;;;;;;;12.63;9.73;;;;;;;;;;5093854;28;20196;-85
2024/02/22 09:07:42;;;;;;;18.73;13.03;;;;;;;;;;5099818;28;20191;-85
2024/02/22 09:10:10;;;;;;;19.03;15.63;;;;;;;;;;5101390;28;20200;-84
2024/02/22 09:12:40;;;;;;;17.13;13.10;;;;;;;;;;5094437;28;20204;-85
2024/02/22 09:15:08;;;;;;;13.63;11.20;;;;;;;;;;5093690;28;20220;-85
2024/02/22 09:17:35;;;;;;;12.90;11.53;;;;;;;;;;5094359;28;20200;-84
2024/02/22 09:20:05;;;;;;;13.10;11.70;;;;;;;;;;5094794;28;20229;-84
2024/02/22 09:22:32;;;;;;;14.73;10.90;;;;;;;;;;5106053;28;20196;-85
2024/02/22 09:24:59;;;;;;;18.33;14.27;;;;;;;;;;5107341;28;20667;-83
2024/02/22 09:27:25;;;;;;;20.73;15.47;;;;;;;;;;5093626;28;20201;-85
2024/02/22 09:29:53;;;;;;;18.13;13.33;;;;;;;;;;5093930;28;20207;-85
2024/02/22 09:32:20;;;;;;;16.67;14.03;;;;;;;;;;5094012;28;20207;-84
2024/02/22 09:34:47;;;;;;;13.97;12.33;;;;;;;;;;5092645;28;20289;-85
2024/02/22 09:37:16;;;;;;;16.93;12.37;;;;;;;;;;5092518;28;20192;-85
2024/02/22 09:39:43;;;;;;;20.70;14.43;;;;;;;;;;5107089;28;20199;-85
2024/02/22 09:42:11;;;;;;;17.57;12.73;;;;;;;;;;5093564;28;20203;-84
2024/02/22 09:44:38;;;;;;;15.67;12.47;;;;;;;;;;5096105;28;20208;-85
2024/02/22 09:47:08;;;;;;;16.63;12.93;;;;;;;;;;5103956;28;20660;-85
2024/02/22 09:49:34;;;;;;;13.50;10.03;;;;;;;;;;5093185;28;20197;-84
2024/02/22 09:52:02;;;;;;;12.57;9.77;;;;;;;;;;5093031;28;20689;-84
2024/02/22 09:54:30;;;;;;;12.03;8.77;;;;;;;;;;5096997;28;20238;-84
2024/02/22 09:56:57;;;;;;;11.73;9.87;;;;;;;;;;5101926;28;20200;-84
2024/02/22 09:59:24;;;;;;;17.77;12.30;;;;;;;;;;5092452;28;20656;-84
2024/02/22 10:01:51;;;;;;;11.33;9.03;;;;;;;;;;5104998;28;20192;-84
2024/02/22 10:04:21;;;;;;;11.00;8.87;;;;;;;;;;5090683;28;20258;-85
2024/02/22 10:06:48;;;;;;;10.17;7.07;;;;;;;;;;5084465;28;20662;-84
2024/02/22 10:09:16;;;;;;;7.27;6.57;;;;;;;;;;5092982;28;20559;-84
2024/02/22 10:11:45;;;;;;;8.50;7.43;;;;;;;;;;5092854;28;20206;-84
2024/02/22 10:14:13;;;;;;;7.60;6.57;;;;;;;;;;5092488;28;20724;-85
2024/02/22 10:16:40;;;;;;;7.70;6.07;;;;;;;;;;5092914;28;20199;-83
2024/02/22 10:19:07;;;;;;;10.03;5.37;;;;;;;;;;5092138;28;20799;-84
2024/02/22 10:21:34;;;;;;;7.23;5.63;;;;;;;;;;5092065;28;20206;-84
2024/02/22 10:24:02;;;;;;;6.20;5.00;;;;;;;;;;5091978;28;20204;-84
2024/02/22 10:26:29;;;;;;;8.07;6.10;;;;;;;;;;5092156;28;20224;-85
2024/02/22 10:29:06;;;;;;;5.37;4.87;;;;;;;;;;5106196;28;20261;-85
2024/02/22 10:31:33;;;;;;;9.10;5.27;;;;;;;;;;5091727;28;20204;-84
2024/02/22 10:34:02;;;;;;;5.17;4.37;;;;;;;;;;5092110;28;20240;-84
2024/02/22 10:36:29;;;;;;;5.13;4.70;;;;;;;;;;5092525;28;20265;-84
2024/02/22 10:38:57;;;;;;;6.37;5.73;;;;;;;;;;5092290;28;20614;-83
2024/02/22 10:41:23;;;;;;;4.53;4.13;;;;;;;;;;5105797;28;20567;-84
2024/02/22 10:43:51;;;;;;;6.03;5.43;;;;;;;;;;5101497;28;20647;-85
2024/02/22 10:46:20;;;;;;;10.50;7.73;;;;;;;;;;5096659;28;20573;-84
2024/02/22 10:48:51;;;;;;;7.53;5.30;;;;;;;;;;5101026;28;20203;-85
2024/02/22 10:51:20;;;;;;;5.37;4.97;;;;;;;;;;5091842;28;20234;-85
2024/02/22 10:53:52;;;;;;;6.97;6.07;;;;;;;;;;5082891;28;20212;-85
2024/02/22 10:56:22;;;;;;;6.93;5.57;;;;;;;;;;5110220;28;20235;-84
2024/02/22 10:58:50;;;;;;;7.37;6.67;;;;;;;;;;5087716;28;20215;-84
2024/02/22 11:01:18;;;;;;;5.70;5.23;;;;;;;;;;5104128;28;20655;-84
2024/02/22 11:03:45;;;;;;;5.77;4.57;;;;;;;;;;5091988;28;20202;-85
2024/02/22 11:06:14;;;;;;;5.77;5.17;;;;;;;;;;5091779;28;20204;-83
2024/02/22 11:08:49;;;;;;;25.63;15.80;;;;;;;;;;5091925;28;20197;-85
2024/02/22 11:11:26;;;;;;;33.23;20.27;;;;;;;;;;5100437;28;20283;-85
2024/02/22 11:13:57;;;;;;;68.60;38.87;;;;;;;;;;5094737;28;20555;-85
2024/02/22 11:16:33;;;;;;;51.67;31.67;;;;;;;;;;5102944;28;20194;-84
2024/02/22 11:19:08;;;;;;;51.37;36.97;;;;;;;;;;5105787;28;20198;-84
2024/02/22 11:21:36;;;;;;;21.90;17.63;;;;;;;;;;5104715;28;20232;-85
2024/02/22 11:24:09;;;;;;;7.00;6.27;;;;;;;;;;5078170;28;20659;-83
2024/02/22 11:26:36;;;;;;;8.70;5.23;;;;;;;;;;5104629;28;20195;-84
2024/02/22 11:29:03;;;;;;;5.30;4.80;;;;;;;;;;5091447;28;20219;-84
2024/02/22 11:31:31;;;;;;;5.93;5.37;;;;;;;;;;5091310;28;20640;-84
2024/02/22 11:33:59;;;;;;;4.83;4.33;;;;;;;;;;5091394;28;20223;-85
2024/02/22 11:36:26;;;;;;;5.13;4.67;;;;;;;;;;5091394;28;20262;-85
2024/02/22 11:38:58;;;;;;;4.53;4.13;;;;;;;;;;5091308;28;20686;-85
2024/02/22 11:41:26;;;;;;;7.10;5.50;;;;;;;;;;5091473;28;20627;-85
2024/02/22 11:44:02;;;;;;;4.80;4.20;;;;;;;;;;5091422;28;20200;-84
2024/02/22 11:46:29;;;;;;;5.33;4.83;;;;;;;;;;5104574;28;20199;-83
2024/02/22 11:48:57;;;;;;;5.37;4.87;;;;;;;;;;5091296;28;20222;-84
2024/02/22 11:51:24;;;;;;;6.50;5.00;;;;;;;;;;5090777;28;20254;-85
2024/02/22 11:53:54;;;;;;;5.00;4.50;;;;;;;;;;5103378;28;20745;-85
2024/02/22 11:56:21;;;;;;;5.03;4.33;;;;;;;;;;5078120;28;20202;-84
2024/02/22 11:58:47;;;;;;;6.70;6.10;;;;;;;;;;5104194;28;20204;-85
2024/02/22 12:01:15;;;;;;;5.60;5.10;;;;;;;;;;5097530;28;20262;-84
2024/02/22 12:03:41;;;;;;;6.47;5.87;;;;;;;;;;5084108;28;20208;-86
2024/02/22 12:06:11;;;;;;;5.40;4.90;;;;;;;;;;5090250;28;20241;-84
2024/02/22 12:08:40;;;;;;;6.40;5.40;;;;;;;;;;5090919;28;20291;-84
2024/02/22 12:11:08;;;;;;;4.80;4.13;;;;;;;;;;5077537;28;20568;-84
2024/02/22 12:13:35;;;;;;;5.47;4.37;;;;;;;;;;5104000;28;20199;-85
2024/02/22 12:16:06;;;;;;;4.73;4.33;;;;;;;;;;5090652;28;20227;-84
2024/02/22 12:18:33;;;;;;;4.57;3.83;;;;;;;;;;5103656;28;20689;-84
2024/02/22 12:21:00;;;;;;;5.20;4.03;;;;;;;;;;5091143;28;20196;-84
2024/02/22 12:23:28;;;;;;;4.53;3.60;;;;;;;;;;5091154;28;20234;-84
2024/02/22 12:25:55;;;;;;;4.90;4.50;;;;;;;;;;5098889;28;20622;-84
2024/02/22 12:28:21;;;;;;;5.30;4.57;;;;;;;;;;5084072;28;20291;-84
2024/02/22 12:30:48;;;;;;;4.57;4.17;;;;;;;;;;5111005;28;20205;-85
2024/02/22 12:33:22;;;;;;;4.37;3.97;;;;;;;;;;5094745;28;20278;-84
2024/02/22 12:35:48;;;;;;;4.47;4.07;;;;;;;;;;5090714;28;20252;-85
2024/02/22 12:38:15;;;;;;;7.13;4.77;;;;;;;;;;5091018;28;20196;-84
2024/02/22 12:40:46;;;;;;;4.57;4.17;;;;;;;;;;5090765;28;20245;-84
2024/02/22 12:43:14;;;;;;;5.87;4.73;;;;;;;;;;5095004;28;20227;-84
2024/02/22 12:45:41;;;;;;;5.73;5.03;;;;;;;;;;5099323;28;20200;-84
2024/02/22 12:48:08;;;;;;;4.47;4.07;;;;;;;;;;5090780;28;20203;-84
2024/02/22 12:50:37;;;;;;;4.87;4.47;;;;;;;;;;5090821;28;20200;-84
2024/02/22 12:53:05;;;;;;;4.57;4.17;;;;;;;;;;5090887;28;20294;-84
2024/02/22 12:55:32;;;;;;;11.60;9.27;;;;;;;;;;5090306;28;20602;-83
2024/02/22 12:58:00;;;;;;;6.20;5.60;;;;;;;;;;5103927;28;20249;-84
2024/02/22 13:00:26;;;;;;;6.77;6.17;;;;;;;;;;5090392;28;20221;-84
2024/02/22 13:02:53;;;;;;;6.03;5.43;;;;;;;;;;5090204;28;20254;-84
2024/02/22 13:05:20;;;;;;;6.57;5.70;;;;;;;;;;5089887;28;20192;-84
2024/02/22 13:07:47;;;;;;;5.93;5.30;;;;;;;;;;5096728;28;20213;-88
2024/02/22 13:10:14;;;;;;;6.00;3.83;;;;;;;;;;5097054;28;20634;-85
2024/02/22 13:12:41;;;;;;;3.87;3.57;;;;;;;;;;5097597;28;20211;-84
2024/02/22 13:15:11;;;;;;;3.80;3.47;;;;;;;;;;5100791;28;20224;-84
2024/02/22 13:17:38;;;;;;;5.17;4.33;;;;;;;;;;5101130;28;20191;-84
2024/02/22 13:20:06;;;;;;;4.93;4.43;;;;;;;;;;5099647;28;20201;-85
2024/02/22 13:22:33;;;;;;;4.73;4.00;;;;;;;;;;5093696;28;20200;-84
2024/02/22 13:24:59;;;;;;;4.07;3.70;;;;;;;;;;5093578;28;20206;-84
2024/02/22 13:27:26;;;;;;;4.87;4.40;;;;;;;;;;5094042;28;20201;-83
2024/02/22 13:29:53;;;;;;;14.77;9.50;;;;;;;;;;5093618;28;20200;-84
2024/02/22 13:32:21;;;;;;;8.67;7.80;;;;;;;;;;5093685;28;20198;-85
2024/02/22 13:34:48;;;;;;;5.90;4.33;;;;;;;;;;5093438;28;20232;-84
2024/02/22 13:37:15;;;;;;;5.03;4.53;;;;;;;;;;5093647;28;20200;-85
2024/02/22 13:39:41;;;;;;;5.80;3.73;;;;;;;;;;5108704;28;20207;-84
2024/02/22 13:42:08;;;;;;;5.03;4.17;;;;;;;;;;5096635;28;20204;-85
2024/02/22 13:44:35;;;;;;;5.43;4.13;;;;;;;;;;5102046;28;20658;-85
2024/02/22 13:47:02;;;;;;;5.70;3.87;;;;;;;;;;5093737;28;20591;-84
2024/02/22 13:49:30;;;;;;;4.50;3.63;;;;;;;;;;5092875;28;20651;-85
2024/02/22 13:51:57;;;;;;;3.70;3.40;;;;;;;;;;5093205;28;20197;-85
2024/02/22 13:54:27;;;;;;;3.53;3.13;;;;;;;;;;5096617;28;20198;-84
2024/02/22 13:56:56;;;;;;;3.37;3.07;;;;;;;;;;5102177;28;20216;-84
2024/02/22 13:59:23;;;;;;;3.90;3.50;;;;;;;;;;5106288;28;20200;-85
2024/02/22 14:01:49;;;;;;;5.53;4.63;;;;;;;;;;5093409;28;20196;-85
2024/02/22 14:04:16;;;;;;;2.60;2.40;;;;;;;;;;5088949;28;20197;-83
2024/02/22 14:06:44;;;;;;;5.23;3.60;;;;;;;;;;5084347;28;20228;-85
2024/02/22 14:09:11;;;;;;;3.17;2.87;;;;;;;;;;5092692;28;20663;-84
2024/02/22 14:11:41;;;;;;;3.77;3.40;;;;;;;;;;5093228;28;20253;-84
2024/02/22 14:14:08;;;;;;;3.33;3.03;;;;;;;;;;5097899;28;20607;-84
2024/02/22 14:16:35;;;;;;;3.87;3.47;;;;;;;;;;5100291;28;20228;-84
2024/02/22 14:19:02;;;;;;;3.40;3.10;;;;;;;;;;5098122;28;20650;-84
2024/02/22 14:21:28;;;;;;;3.00;2.70;;;;;;;;;;5100739;28;20287;-85
2024/02/22 14:23:56;;;;;;;3.47;3.17;;;;;;;;;;5111330;28;20200;-84
2024/02/22 14:26:23;;;;;;;3.33;3.03;;;;;;;;;;5100012;28;20204;-84
2024/02/22 14:28:50;;;;;;;2.93;2.63;;;;;;;;;;5092288;28;20195;-84
2024/02/22 14:31:19;;;;;;;3.63;3.33;;;;;;;;;;5092968;28;20196;-84
2024/02/22 14:33:46;;;;;;;3.17;2.90;;;;;;;;;;5099165;28;20216;-84
2024/02/22 14:36:14;;;;;;;4.30;3.30;;;;;;;;;;5086035;28;20224;-83